createdAt,value
2023-03-29T00:01:00.185Z,1.84
2023-03-29T00:03:28.211Z,1.84
2023-03-29T00:06:03.003Z,1.57
2023-03-29T00:08:32.162Z,1.81
2023-03-29T00:11:01.481Z,1.85
2023-03-29T00:13:29.021Z,1.84
2023-03-29T00:15:57.199Z,1.87
2023-03-29T00:18:24.766Z,1.87
2023-03-29T00:20:55.799Z,1.88
2023-03-29T00:23:24.968Z,1.88
2023-03-29T00:25:54.401Z,1.88
2023-03-29T00:28:23.598Z,1.89
2023-03-29T00:30:51.425Z,1.89
2023-03-29T00:33:20.330Z,1.89
2023-03-29T00:35:49.295Z,1.97
2023-03-29T00:38:17.210Z,1.77
2023-03-29T00:40:47.084Z,1.96
2023-03-29T00:43:15.838Z,1.97
2023-03-29T00:45:44.602Z,2.03
2023-03-29T00:48:15.735Z,2.12
2023-03-29T00:50:48.411Z,2.09
2023-03-29T00:53:21.323Z,2.11
2023-03-29T00:55:52.519Z,2.09
2023-03-29T00:58:26.281Z,2.15
2023-03-29T01:01:02.129Z,2.16
2023-03-29T01:03:34.851Z,2.17
2023-03-29T01:06:08.563Z,2.20
2023-03-29T01:08:41.830Z,2.00
2023-03-29T01:11:15.029Z,2.18
2023-03-29T01:13:46.818Z,2.13
2023-03-29T01:16:18.908Z,2.09
2023-03-29T01:18:47.206Z,2.17
2023-03-29T01:21:21.405Z,2.21
2023-03-29T01:24:06.605Z,2.21
2023-03-29T01:26:48.620Z,2.23
2023-03-29T01:29:25.535Z,2.29
2023-03-29T01:31:58.946Z,2.21
2023-03-29T01:34:32.585Z,2.28
2023-03-29T01:37:05.139Z,2.28
2023-03-29T01:39:34.880Z,2.30
2023-03-29T01:42:13.461Z,2.32
2023-03-29T01:44:49.529Z,2.30
2023-03-29T01:47:24.898Z,2.31
2023-03-29T01:50:05.523Z,2.34
2023-03-29T01:52:36.909Z,2.29
2023-03-29T01:55:10.518Z,2.20
2023-03-29T01:57:43.638Z,2.43
2023-03-29T02:00:16.462Z,2.13
2023-03-29T02:02:46.940Z,2.36
2023-03-29T02:05:16.016Z,2.22
2023-03-29T02:07:45.155Z,2.36
2023-03-29T02:10:14.065Z,2.49
2023-03-29T02:12:41.939Z,2.50
2023-03-29T02:15:15.630Z,2.36
2023-03-29T02:17:44.936Z,2.44
2023-03-29T02:20:17.491Z,2.34
2023-03-29T02:22:52.687Z,2.31
2023-03-29T02:25:22.406Z,2.57
2023-03-29T02:27:50.462Z,2.55
2023-03-29T02:30:20.972Z,2.56
2023-03-29T02:32:53.288Z,2.55
2023-03-29T02:35:28.199Z,2.53
2023-03-29T02:38:00.031Z,2.53
2023-03-29T02:40:28.125Z,2.51
2023-03-29T02:42:58.491Z,2.43
2023-03-29T02:45:29.244Z,2.37
2023-03-29T02:48:01.269Z,2.40
2023-03-29T02:50:35.299Z,2.47
2023-03-29T02:53:06.795Z,2.47
2023-03-29T02:55:35.446Z,2.53
2023-03-29T02:58:08.016Z,2.54
2023-03-29T03:00:39.397Z,2.52
2023-03-29T03:03:08.802Z,2.54
2023-03-29T03:05:37.307Z,2.60
2023-03-29T03:08:05.225Z,2.64
2023-03-29T03:10:33.669Z,2.72
2023-03-29T03:13:01.377Z,2.56
2023-03-29T03:15:29.073Z,2.81
2023-03-29T03:17:57.997Z,2.86
2023-03-29T03:20:26.435Z,2.87
2023-03-29T03:22:53.945Z,2.90
2023-03-29T03:25:22.045Z,2.89
2023-03-29T03:27:50.427Z,2.82
2023-03-29T03:30:18.796Z,2.92
2023-03-29T03:32:46.277Z,2.90
2023-03-29T03:35:15.245Z,2.90
2023-03-29T03:37:42.825Z,2.92
2023-03-29T03:40:12.349Z,2.97
2023-03-29T03:42:40.953Z,2.87
2023-03-29T03:45:10.509Z,3.02
2023-03-29T03:47:38.277Z,2.99
2023-03-29T03:50:07.285Z,3.02
2023-03-29T03:52:36.197Z,3.05
2023-03-29T03:55:03.722Z,3.06
2023-03-29T03:57:32.968Z,3.20
2023-03-29T04:00:00.496Z,3.27
2023-03-29T04:02:28.117Z,3.30
2023-03-29T04:04:55.766Z,3.35
2023-03-29T04:07:25.253Z,3.38
2023-03-29T04:09:54.080Z,3.45
2023-03-29T04:12:21.725Z,3.30
2023-03-29T04:14:49.393Z,3.45
2023-03-29T04:17:16.981Z,3.44
2023-03-29T04:19:44.575Z,3.46
2023-03-29T04:22:12.067Z,3.64
2023-03-29T04:24:39.525Z,3.48
2023-03-29T04:27:09.227Z,3.53
2023-03-29T04:29:36.953Z,3.55
2023-03-29T04:32:04.956Z,3.55
2023-03-29T04:34:32.660Z,3.30
2023-03-29T04:37:00.863Z,3.55
2023-03-29T04:39:33.760Z,3.51
2023-03-29T04:42:02.866Z,3.47
2023-03-29T04:44:33.321Z,3.45
2023-03-29T04:47:00.917Z,3.43
2023-03-29T04:49:28.901Z,3.33
2023-03-29T04:51:57.072Z,3.34
2023-03-29T04:54:24.640Z,3.43
2023-03-29T04:56:52.473Z,3.44
2023-03-29T04:59:20.150Z,3.43
2023-03-29T05:01:49.050Z,3.45
2023-03-29T05:04:18.257Z,3.41
2023-03-29T05:06:45.758Z,3.37
2023-03-29T05:09:13.201Z,3.44
2023-03-29T05:11:40.755Z,3.44
2023-03-29T05:14:09.175Z,3.33
2023-03-29T05:16:38.102Z,3.45
2023-03-29T05:19:07.644Z,3.38
2023-03-29T05:21:35.204Z,3.43
2023-03-29T05:24:03.096Z,3.33
2023-03-29T05:26:30.845Z,3.24
2023-03-29T05:28:58.495Z,3.48
2023-03-29T05:31:26.394Z,3.53
2023-03-29T05:33:53.998Z,3.54
2023-03-29T05:36:23.283Z,3.54
2023-03-29T05:38:50.796Z,3.45
2023-03-29T05:41:18.758Z,3.55
2023-03-29T05:43:46.666Z,3.58
2023-03-29T05:46:14.169Z,3.57
2023-03-29T05:52:09.821Z,3.62
2023-03-29T05:54:37.336Z,3.62
2023-03-29T05:57:04.855Z,3.62
2023-03-29T05:59:32.599Z,3.61
2023-03-29T06:02:03.021Z,3.55
2023-03-29T06:04:30.742Z,3.72
2023-03-29T06:07:00.298Z,3.76
2023-03-29T06:09:29.341Z,3.83
2023-03-29T06:11:57.448Z,3.90
2023-03-29T06:14:24.910Z,3.89
2023-03-29T06:16:53.296Z,4.04
2023-03-29T06:19:20.881Z,4.11
2023-03-29T06:21:48.324Z,4.19
2023-03-29T06:24:16.193Z,4.18
2023-03-29T06:26:45.183Z,4.34
2023-03-29T06:29:12.797Z,4.37
2023-03-29T06:31:40.781Z,4.48
2023-03-29T06:34:08.714Z,4.45
2023-03-29T06:36:36.442Z,4.51
2023-03-29T06:39:08.432Z,4.54
2023-03-29T06:41:36.068Z,4.62
2023-03-29T06:44:05.084Z,4.65
2023-03-29T06:46:35.254Z,4.72
2023-03-29T06:49:03.227Z,4.72
2023-03-29T06:51:31.246Z,4.62
2023-03-29T06:53:58.896Z,4.83
2023-03-29T06:56:26.671Z,4.84
2023-03-29T06:58:54.370Z,4.88
2023-03-29T07:01:23.920Z,4.73
2023-03-29T07:03:52.999Z,4.95
2023-03-29T07:06:23.852Z,4.89
2023-03-29T07:08:55.250Z,4.78
2023-03-29T07:11:23.280Z,4.93
2023-03-29T07:13:51.278Z,5.30
2023-03-29T07:16:19.333Z,5.35
2023-03-29T07:18:48.691Z,5.26
2023-03-29T07:21:16.649Z,5.57
2023-03-29T07:23:44.885Z,5.29
2023-03-29T07:26:16.126Z,5.49
2023-03-29T07:28:56.683Z,5.42
2023-03-29T07:31:24.482Z,5.64
2023-03-29T07:33:53.756Z,5.79
2023-03-29T07:36:21.647Z,5.64
2023-03-29T07:38:50.025Z,5.91
2023-03-29T07:41:18.114Z,6.00
2023-03-29T07:43:46.719Z,5.88
2023-03-29T07:46:14.526Z,6.07
2023-03-29T07:48:42.338Z,6.11
2023-03-29T07:51:11.939Z,6.03
2023-03-29T07:53:39.969Z,6.31
2023-03-29T07:56:08.907Z,6.44
2023-03-29T07:58:37.692Z,6.40
2023-03-29T08:01:06.248Z,6.37
2023-03-29T08:03:34.536Z,6.19
2023-03-29T08:06:02.912Z,6.33
2023-03-29T08:08:31.854Z,6.55
2023-03-29T08:10:59.633Z,6.66
2023-03-29T08:13:28.196Z,6.65
2023-03-29T08:15:56.001Z,6.60
2023-03-29T08:18:23.459Z,6.87
2023-03-29T08:20:51.647Z,6.98
2023-03-29T08:23:19.312Z,7.14
2023-03-29T08:25:48.398Z,7.02
2023-03-29T08:28:15.980Z,7.17
2023-03-29T08:30:43.494Z,7.41
2023-03-29T08:33:11.064Z,7.38
2023-03-29T08:35:38.619Z,7.52
2023-03-29T08:38:06.132Z,7.65
2023-03-29T08:40:33.936Z,7.79
2023-03-29T08:43:26.963Z,7.88
2023-03-29T08:46:04.066Z,7.89
2023-03-29T08:48:35.347Z,7.91
2023-03-29T08:51:08.574Z,7.97
2023-03-29T08:53:44.127Z,8.07
2023-03-29T08:56:15.879Z,7.99
2023-03-29T08:58:46.581Z,8.15
2023-03-29T09:01:14.513Z,8.29
2023-03-29T09:03:46.185Z,8.25
2023-03-29T09:06:14.309Z,8.29
2023-03-29T09:08:45.620Z,8.30
2023-03-29T09:11:32.899Z,8.46
2023-03-29T09:14:20.370Z,8.48
2023-03-29T09:16:58.596Z,8.51
2023-03-29T09:19:33.401Z,8.55
2023-03-29T09:22:06.670Z,8.47
2023-03-29T09:24:47.658Z,8.39
2023-03-29T09:27:21.090Z,8.51
2023-03-29T09:29:59.320Z,8.78
2023-03-29T09:32:32.991Z,8.76
2023-03-29T09:35:07.886Z,8.92
2023-03-29T09:37:39.302Z,8.99
2023-03-29T09:40:13.421Z,9.08
2023-03-29T09:42:42.222Z,9.05
2023-03-29T09:45:11.920Z,9.18
2023-03-29T09:47:44.665Z,9.13
2023-03-29T09:50:29.503Z,9.18
2023-03-29T09:52:58.521Z,9.35
2023-03-29T09:55:29.457Z,9.38
2023-03-29T09:58:01.241Z,9.51
2023-03-29T10:00:30.074Z,9.72
2023-03-29T10:02:59.981Z,9.74
2023-03-29T10:05:31.869Z,9.85
2023-03-29T10:08:02.191Z,9.86
2023-03-29T10:10:32.879Z,9.82
2023-03-29T10:13:02.598Z,9.87
2023-03-29T10:15:31.939Z,9.88
2023-03-29T10:18:03.167Z,9.86
2023-03-29T10:20:30.947Z,10.05
2023-03-29T10:23:02.579Z,9.80
2023-03-29T10:25:32.977Z,9.67
2023-03-29T10:28:06.790Z,9.28
2023-03-29T10:30:37.820Z,9.46
2023-03-29T10:33:07.723Z,9.44
2023-03-29T10:35:40.573Z,9.18
2023-03-29T10:38:14.746Z,9.28
2023-03-29T10:40:45.491Z,9.42
2023-03-29T10:43:15.744Z,9.52
2023-03-29T10:45:45.279Z,9.47
2023-03-29T10:48:14.953Z,9.81
2023-03-29T10:50:43.085Z,10.02
2023-03-29T10:53:17.514Z,10.29
2023-03-29T10:55:54.804Z,10.33
2023-03-29T10:58:32.537Z,10.38
2023-03-29T11:01:02.051Z,10.39
2023-03-29T11:03:44.773Z,10.81
2023-03-29T11:06:20.959Z,10.96
2023-03-29T11:08:55.282Z,10.83
2023-03-29T11:11:43.944Z,11.03
2023-03-29T11:14:23.063Z,11.13
2023-03-29T11:17:06.035Z,11.00
2023-03-29T11:19:49.649Z,11.12
2023-03-29T11:22:24.106Z,11.27
2023-03-29T11:25:04.849Z,11.31
2023-03-29T11:27:38.488Z,11.41
2023-03-29T11:30:10.069Z,11.45
2023-03-29T11:32:49.074Z,11.18
2023-03-29T11:35:42.587Z,11.37
2023-03-29T11:38:20.138Z,11.57
2023-03-29T11:40:56.526Z,11.70
2023-03-29T11:43:28.309Z,11.51
2023-03-29T11:46:01.946Z,11.40
2023-03-29T11:48:36.942Z,11.46
2023-03-29T11:51:12.107Z,11.22
2023-03-29T11:53:47.363Z,11.04
2023-03-29T11:56:21.162Z,11.15
2023-03-29T11:58:58.476Z,11.23
2023-03-29T12:01:32.611Z,11.49
2023-03-29T12:04:16.115Z,11.46
2023-03-29T12:06:52.378Z,11.47
2023-03-29T12:09:28.774Z,11.40
2023-03-29T12:12:04.349Z,11.81
2023-03-29T12:14:47.968Z,12.00
2023-03-29T12:17:20.503Z,12.41
2023-03-29T12:19:56.544Z,12.31
2023-03-29T12:22:24.420Z,12.23
2023-03-29T12:24:55.107Z,11.94
2023-03-29T12:27:27.962Z,12.26
2023-03-29T12:30:23.401Z,12.45
2023-03-29T12:33:21.390Z,12.43
2023-03-29T12:36:02.547Z,12.56
2023-03-29T12:38:31.610Z,12.68
2023-03-29T12:41:01.924Z,12.68
2023-03-29T12:43:33.281Z,12.65
2023-03-29T12:46:08.163Z,12.57
2023-03-29T12:48:39.756Z,12.63
2023-03-29T12:51:14.758Z,12.57
2023-03-29T12:53:45.938Z,12.53
2023-03-29T12:56:16.931Z,12.70
2023-03-29T12:58:53.756Z,12.64
2023-03-29T13:01:28.567Z,12.67
2023-03-29T13:04:16.739Z,12.51
2023-03-29T13:07:03.853Z,12.73
2023-03-29T13:09:35.687Z,12.92
2023-03-29T13:12:14.417Z,12.98
2023-03-29T13:14:44.879Z,13.25
2023-03-29T13:17:23.659Z,13.35
2023-03-29T13:20:04.346Z,13.40
2023-03-29T13:22:44.005Z,13.40
2023-03-29T13:25:28.279Z,13.50
2023-03-29T13:28:04.251Z,13.53
2023-03-29T13:30:47.250Z,13.40
2023-03-29T13:33:45.622Z,13.40
2023-03-29T13:36:22.423Z,13.48
2023-03-29T13:38:54.717Z,13.38
2023-03-29T13:41:34.289Z,13.56
2023-03-29T13:44:02.450Z,13.79
2023-03-29T13:46:38.799Z,13.90
2023-03-29T13:49:15.344Z,14.08
2023-03-29T13:51:49.082Z,14.04
2023-03-29T13:54:27.721Z,13.93
2023-03-29T13:57:06.671Z,13.72
2023-03-29T13:59:41.156Z,13.80
2023-03-29T14:02:16.832Z,13.72
2023-03-29T14:04:48.457Z,13.52
2023-03-29T14:07:16.319Z,13.47
2023-03-29T14:09:49.696Z,13.54
2023-03-29T14:12:20.815Z,13.54
2023-03-29T14:14:58.906Z,13.68
2023-03-29T14:17:28.030Z,13.59
2023-03-29T14:19:59.187Z,13.40
2023-03-29T14:22:31.505Z,13.28
2023-03-29T14:25:04.606Z,13.16
2023-03-29T14:27:33.442Z,13.09
2023-03-29T14:30:01.133Z,12.99
2023-03-29T14:32:30.942Z,12.87
2023-03-29T14:34:59.053Z,12.63
2023-03-29T14:37:28.625Z,12.71
2023-03-29T14:39:56.369Z,12.69
2023-03-29T14:42:29.072Z,12.59
2023-03-29T14:45:03.891Z,12.55
2023-03-29T14:47:33.534Z,12.42
2023-03-29T14:50:02.631Z,12.41
2023-03-29T14:52:31.363Z,12.36
2023-03-29T14:55:01.786Z,12.28
2023-03-29T14:57:36.339Z,12.28
2023-03-29T15:00:17.681Z,12.18
2023-03-29T15:02:51.140Z,12.15
2023-03-29T15:05:37.703Z,12.12
2023-03-29T15:08:08.677Z,12.11
2023-03-29T15:10:38.703Z,12.03
2023-03-29T15:13:09.352Z,11.94
2023-03-29T15:15:38.879Z,11.91
2023-03-29T15:18:08.740Z,11.88
2023-03-29T15:20:39.522Z,11.81
2023-03-29T15:23:19.897Z,11.89
2023-03-29T15:25:51.852Z,11.93
2023-03-29T15:28:28.101Z,11.91
2023-03-29T15:31:07.820Z,11.96
2023-03-29T15:33:37.372Z,11.96
2023-03-29T15:36:06.907Z,12.03
2023-03-29T15:38:43.985Z,11.97
2023-03-29T15:41:13.366Z,12.12
2023-03-29T15:43:42.548Z,11.93
2023-03-29T15:46:12.394Z,12.10
2023-03-29T15:48:39.877Z,12.13
2023-03-29T15:51:07.573Z,12.18
2023-03-29T15:53:36.533Z,12.18
2023-03-29T15:56:07.960Z,12.18
2023-03-29T15:58:36.383Z,12.20
2023-03-29T16:01:13.017Z,12.11
2023-03-29T16:03:41.566Z,12.29
2023-03-29T16:06:12.255Z,12.21
2023-03-29T16:08:41.316Z,12.21
2023-03-29T16:11:09.334Z,12.22
2023-03-29T16:13:36.898Z,12.12
2023-03-29T16:16:07.080Z,12.18
2023-03-29T16:18:35.680Z,12.14
2023-03-29T16:21:03.478Z,12.07
2023-03-29T16:23:31.007Z,11.92
2023-03-29T16:25:59.293Z,12.06
2023-03-29T16:28:26.902Z,12.04
2023-03-29T16:30:54.590Z,11.81
2023-03-29T16:33:23.660Z,11.82
2023-03-29T16:35:51.657Z,11.86
2023-03-29T16:38:19.941Z,11.82
2023-03-29T16:40:48.556Z,11.56
2023-03-29T16:43:17.062Z,11.74
2023-03-29T16:45:44.780Z,11.70
2023-03-29T16:48:13.726Z,11.52
2023-03-29T16:50:42.686Z,11.58
2023-03-29T16:53:10.930Z,11.61
2023-03-29T16:55:39.391Z,11.41
2023-03-29T16:58:07.260Z,11.28
2023-03-29T17:00:35.210Z,11.37
2023-03-29T17:03:02.890Z,11.27
2023-03-29T17:05:30.572Z,11.38
2023-03-29T17:07:59.427Z,11.37
2023-03-29T17:10:26.857Z,11.30
2023-03-29T17:12:54.314Z,11.34
2023-03-29T17:15:24.672Z,11.28
2023-03-29T17:17:52.168Z,11.23
2023-03-29T17:20:21.861Z,11.20
2023-03-29T17:22:52.012Z,11.15
2023-03-29T17:25:20.829Z,11.18
2023-03-29T17:27:48.321Z,11.11
2023-03-29T17:30:16.478Z,11.03
2023-03-29T17:32:45.481Z,11.00
2023-03-29T17:35:13.610Z,10.99
2023-03-29T17:37:41.794Z,10.85
2023-03-29T17:40:12.406Z,10.94
2023-03-29T17:42:41.289Z,10.92
2023-03-29T17:45:10.708Z,10.88
2023-03-29T17:47:38.720Z,10.84
2023-03-29T17:50:08.081Z,10.84
2023-03-29T17:52:35.743Z,10.74
2023-03-29T17:55:03.666Z,10.75
2023-03-29T18:00:10.661Z,10.54
2023-03-29T18:02:38.405Z,10.53
2023-03-29T18:05:06.661Z,10.44
2023-03-29T18:07:34.503Z,10.62
2023-03-29T18:10:02.680Z,9.98
2023-03-29T18:12:31.065Z,10.02
2023-03-29T18:14:58.788Z,10.61
2023-03-29T18:17:28.104Z,10.53
2023-03-29T18:19:55.677Z,10.59
2023-03-29T18:22:23.958Z,10.58
2023-03-29T18:24:51.560Z,10.53
2023-03-29T18:27:19.723Z,10.54
2023-03-29T18:29:47.379Z,10.41
2023-03-29T18:32:15.201Z,10.38
2023-03-29T18:34:45.592Z,10.49
2023-03-29T18:37:15.054Z,10.51
2023-03-29T18:39:47.062Z,10.46
2023-03-29T18:42:14.740Z,10.47
2023-03-29T18:44:42.365Z,10.38
2023-03-29T18:47:09.999Z,10.32
2023-03-29T18:49:37.691Z,10.38
2023-03-29T18:52:06.652Z,10.38
2023-03-29T18:54:35.269Z,10.45
2023-03-29T18:57:02.923Z,10.47
2023-03-29T18:59:37.051Z,10.46
2023-03-29T19:02:07.182Z,10.28
2023-03-29T19:04:34.905Z,10.44
2023-03-29T19:07:03.572Z,10.42
2023-03-29T19:09:32.699Z,10.45
2023-03-29T19:12:00.680Z,10.31
2023-03-29T19:14:29.231Z,10.33
2023-03-29T19:16:57.020Z,10.41
2023-03-29T19:19:26.316Z,10.41
2023-03-29T19:21:59.904Z,10.31
2023-03-29T19:24:28.379Z,10.21
2023-03-29T19:26:57.722Z,10.48
2023-03-29T19:29:29.621Z,10.48
2023-03-29T19:31:57.383Z,10.47
2023-03-29T19:34:25.154Z,10.50
2023-03-29T19:36:53.438Z,10.24
2023-03-29T19:39:21.690Z,10.49
2023-03-29T19:42:10.392Z,10.46
2023-03-29T19:47:22.894Z,10.51
2023-03-29T19:49:50.610Z,10.45
2023-03-29T19:52:18.248Z,10.50
2023-03-29T19:54:46.045Z,10.59
2023-03-29T19:57:13.930Z,10.59
2023-03-29T19:59:42.942Z,10.49
2023-03-29T20:02:11.665Z,10.62
2023-03-29T20:04:40.886Z,10.54
2023-03-29T20:07:09.631Z,10.02
2023-03-29T20:10:05.012Z,10.07
2023-03-29T20:12:42.049Z,10.75
2023-03-29T20:15:14.869Z,10.46
2023-03-29T20:17:45.221Z,10.81
2023-03-29T20:20:17.756Z,10.39
2023-03-29T20:22:47.728Z,10.07
2023-03-29T20:25:29.677Z,10.75
2023-03-29T20:28:06.370Z,10.55
2023-03-29T20:30:35.289Z,10.69
2023-03-29T20:33:06.037Z,10.56
2023-03-29T20:35:38.419Z,10.37
2023-03-29T20:44:19.457Z,10.59
2023-03-29T20:47:02.376Z,10.64
2023-03-29T20:49:30.511Z,10.78
2023-03-29T20:52:04.478Z,10.78
2023-03-29T20:54:33.143Z,10.73
2023-03-29T20:57:01.307Z,10.60
2023-03-29T20:59:29.684Z,10.32
2023-03-29T21:01:58.278Z,10.54
2023-03-29T21:04:26.634Z,10.29
2023-03-29T21:06:54.402Z,10.62
2023-03-29T21:09:25.451Z,10.58
2023-03-29T21:11:53.536Z,10.56
2023-03-29T21:14:29.539Z,9.80
2023-03-29T21:17:16.311Z,9.85
2023-03-29T21:19:57.663Z,10.38
2023-03-29T21:22:35.730Z,9.72
2023-03-29T21:25:05.036Z,10.30
2023-03-29T21:30:10.064Z,10.15
2023-03-29T21:32:38.358Z,10.25
2023-03-29T21:35:10.541Z,9.58
2023-03-29T21:37:45.577Z,9.54
2023-03-29T21:40:17.123Z,9.77
2023-03-29T21:42:49.737Z,10.06
2023-03-29T21:45:21.260Z,9.49
2023-03-29T21:48:02.100Z,9.47
2023-03-29T21:50:31.977Z,10.01
2023-03-29T21:53:03.968Z,9.81
2023-03-29T21:55:36.655Z,10.15
2023-03-29T21:58:04.817Z,10.02
2023-03-29T22:00:33.054Z,10.03
2023-03-29T22:03:00.702Z,10.11
2023-03-29T22:05:28.292Z,10.29
2023-03-29T22:07:58.551Z,10.33
2023-03-29T22:10:26.460Z,10.36
2023-03-29T22:12:56.116Z,10.34
2023-03-29T22:15:24.313Z,10.27
2023-03-29T22:17:53.232Z,9.85
2023-03-29T22:20:22.196Z,10.44
2023-03-29T22:22:51.730Z,10.25
2023-03-29T22:25:20.795Z,10.32
2023-03-29T22:27:49.444Z,10.18
2023-03-29T22:30:19.030Z,10.25
2023-03-29T22:32:46.730Z,10.53
2023-03-29T22:35:14.361Z,10.60
2023-03-29T22:37:42.855Z,10.70
2023-03-29T22:40:12.304Z,10.67
2023-03-29T22:47:58.202Z,10.66
2023-03-29T22:50:25.803Z,10.62
2023-03-29T22:52:55.735Z,10.51
2023-03-29T22:55:23.393Z,10.47
2023-03-29T22:57:51.101Z,10.44
2023-03-29T23:00:19.649Z,10.24
2023-03-29T23:02:47.328Z,10.39
2023-03-29T23:05:16.647Z,10.27
2023-03-29T23:07:44.333Z,10.45
2023-03-29T23:10:12.725Z,10.42
2023-03-29T23:12:42.789Z,10.49
2023-03-29T23:15:12.110Z,10.55
2023-03-29T23:17:39.573Z,10.57
2023-03-29T23:20:08.707Z,10.56
2023-03-29T23:22:39.628Z,10.54
2023-03-29T23:25:08.004Z,10.50
2023-03-29T23:27:35.580Z,10.51
2023-03-29T23:30:03.556Z,10.41
2023-03-29T23:32:31.146Z,10.42
2023-03-29T23:34:59.893Z,10.28
2023-03-29T23:42:48.252Z,10.40
2023-03-29T23:45:18.139Z,10.33
2023-03-29T23:47:46.596Z,10.38
2023-03-29T23:50:15.367Z,10.32
2023-03-29T23:52:42.910Z,10.40
2023-03-29T23:55:14.361Z,10.40
2023-03-29T23:57:41.975Z,10.41
